sensor_id;sensor_type;location;lat;lon;timestamp;temperature;humidity
54264;DHT22;40178;53.042;6.406;2024-01-07T00:01:58;0.00;99.90
54264;DHT22;40178;53.042;6.406;2024-01-07T00:04:23;0.00;99.90
54264;DHT22;40178;53.042;6.406;2024-01-07T00:06:49;0.00;99.90
54264;DHT22;40178;53.042;6.406;2024-01-07T00:09:16;0.00;99.90
54264;DHT22;40178;53.042;6.406;2024-01-07T00:11:41;0.00;99.90
54264;DHT22;40178;53.042;6.406;2024-01-07T00:14:07;0.00;99.90
54264;DHT22;40178;53.042;6.406;2024-01-07T00:16:33;0.00;99.90
54264;DHT22;40178;53.042;6.406;2024-01-07T00:18:59;0.00;99.90
54264;DHT22;40178;53.042;6.406;2024-01-07T00:21:25;0.00;99.90
54264;DHT22;40178;53.042;6.406;2024-01-07T00:23:51;0.00;99.90
54264;DHT22;40178;53.042;6.406;2024-01-07T00:26:16;0.00;99.90
54264;DHT22;40178;53.042;6.406;2024-01-07T00:28:42;0.00;99.90
54264;DHT22;40178;53.042;6.406;2024-01-07T00:31:07;0.00;99.90
54264;DHT22;40178;53.042;6.406;2024-01-07T00:33:35;-0.10;99.90
54264;DHT22;40178;53.042;6.406;2024-01-07T00:36:01;0.00;99.90
54264;DHT22;40178;53.042;6.406;2024-01-07T00:38:27;-0.10;99.90
54264;DHT22;40178;53.042;6.406;2024-01-07T00:40:52;0.00;99.90
54264;DHT22;40178;53.042;6.406;2024-01-07T00:43:18;0.00;99.90
54264;DHT22;40178;53.042;6.406;2024-01-07T00:45:44;0.00;99.90
54264;DHT22;40178;53.042;6.406;2024-01-07T00:48:09;0.00;99.90
54264;DHT22;40178;53.042;6.406;2024-01-07T00:50:35;-0.10;99.90
54264;DHT22;40178;53.042;6.406;2024-01-07T00:53:01;-0.10;99.90
54264;DHT22;40178;53.042;6.406;2024-01-07T00:55:27;-0.10;99.90
54264;DHT22;40178;53.042;6.406;2024-01-07T00:57:52;-0.10;99.90
54264;DHT22;40178;53.042;6.406;2024-01-07T01:00:18;-0.10;99.90
54264;DHT22;40178;53.042;6.406;2024-01-07T01:02:44;-0.10;99.90
54264;DHT22;40178;53.042;6.406;2024-01-07T01:05:10;-0.10;99.90
54264;DHT22;40178;53.042;6.406;2024-01-07T01:07:35;-0.10;99.90
54264;DHT22;40178;53.042;6.406;2024-01-07T01:10:01;-0.20;99.90
54264;DHT22;40178;53.042;6.406;2024-01-07T01:12:27;-0.20;99.90
54264;DHT22;40178;53.042;6.406;2024-01-07T01:14:52;-0.20;99.90
54264;DHT22;40178;53.042;6.406;2024-01-07T01:17:18;-0.20;99.90
54264;DHT22;40178;53.042;6.406;2024-01-07T01:19:43;-0.20;99.90
54264;DHT22;40178;53.042;6.406;2024-01-07T01:22:09;-0.20;99.90
54264;DHT22;40178;53.042;6.406;2024-01-07T01:24:35;-0.20;99.90
54264;DHT22;40178;53.042;6.406;2024-01-07T01:27:00;-0.20;99.90
54264;DHT22;40178;53.042;6.406;2024-01-07T01:29:26;-0.20;99.90
54264;DHT22;40178;53.042;6.406;2024-01-07T01:31:52;-0.20;99.90
54264;DHT22;40178;53.042;6.406;2024-01-07T01:34:18;-0.30;99.90
54264;DHT22;40178;53.042;6.406;2024-01-07T01:36:43;-0.20;99.90
54264;DHT22;40178;53.042;6.406;2024-01-07T01:39:09;-0.30;99.90
54264;DHT22;40178;53.042;6.406;2024-01-07T01:41:34;-0.30;99.90
54264;DHT22;40178;53.042;6.406;2024-01-07T01:44:01;-0.20;99.90
54264;DHT22;40178;53.042;6.406;2024-01-07T01:46:28;-0.30;99.90
54264;DHT22;40178;53.042;6.406;2024-01-07T01:48:54;-0.20;99.90
54264;DHT22;40178;53.042;6.406;2024-01-07T01:51:21;-0.20;99.90
54264;DHT22;40178;53.042;6.406;2024-01-07T01:53:48;0.50;99.90
54264;DHT22;40178;53.042;6.406;2024-01-07T01:56:19;-0.20;99.90
54264;DHT22;40178;53.042;6.406;2024-01-07T01:58:46;-0.20;99.90
54264;DHT22;40178;53.042;6.406;2024-01-07T02:01:13;-0.20;99.90
54264;DHT22;40178;53.042;6.406;2024-01-07T02:03:39;-0.20;99.90
54264;DHT22;40178;53.042;6.406;2024-01-07T02:06:05;-0.20;99.90
54264;DHT22;40178;53.042;6.406;2024-01-07T02:08:31;-0.20;99.90
54264;DHT22;40178;53.042;6.406;2024-01-07T02:10:57;-0.10;99.90
54264;DHT22;40178;53.042;6.406;2024-01-07T02:13:23;-0.20;99.90
54264;DHT22;40178;53.042;6.406;2024-01-07T02:15:48;-0.30;99.90
54264;DHT22;40178;53.042;6.406;2024-01-07T02:18:14;-0.30;99.90
54264;DHT22;40178;53.042;6.406;2024-01-07T02:20:40;-0.30;99.90
54264;DHT22;40178;53.042;6.406;2024-01-07T02:23:06;-0.30;99.90
54264;DHT22;40178;53.042;6.406;2024-01-07T02:25:36;-0.20;99.90
54264;DHT22;40178;53.042;6.406;2024-01-07T02:28:02;-0.20;99.90
54264;DHT22;40178;53.042;6.406;2024-01-07T02:30:27;-0.30;99.90
54264;DHT22;40178;53.042;6.406;2024-01-07T02:32:53;-0.30;99.90
54264;DHT22;40178;53.042;6.406;2024-01-07T02:35:18;-0.30;99.90
54264;DHT22;40178;53.042;6.406;2024-01-07T02:37:44;-0.30;99.90
54264;DHT22;40178;53.042;6.406;2024-01-07T02:40:10;-0.30;99.90
54264;DHT22;40178;53.042;6.406;2024-01-07T02:42:36;-0.30;99.90
54264;DHT22;40178;53.042;6.406;2024-01-07T02:45:01;-0.30;99.90
54264;DHT22;40178;53.042;6.406;2024-01-07T02:47:27;-0.30;99.90
54264;DHT22;40178;53.042;6.406;2024-01-07T02:49:52;-0.30;99.90
54264;DHT22;40178;53.042;6.406;2024-01-07T02:52:18;-0.30;99.90
54264;DHT22;40178;53.042;6.406;2024-01-07T02:54:44;-0.30;99.90
54264;DHT22;40178;53.042;6.406;2024-01-07T02:57:09;-0.30;99.90
54264;DHT22;40178;53.042;6.406;2024-01-07T02:59:35;-0.30;99.90
54264;DHT22;40178;53.042;6.406;2024-01-07T03:02:00;-0.30;99.90
54264;DHT22;40178;53.042;6.406;2024-01-07T03:04:26;-0.40;99.90
54264;DHT22;40178;53.042;6.406;2024-01-07T03:06:52;-0.30;99.90
54264;DHT22;40178;53.042;6.406;2024-01-07T03:09:17;-0.30;99.90
54264;DHT22;40178;53.042;6.406;2024-01-07T03:11:43;-0.30;99.90
54264;DHT22;40178;53.042;6.406;2024-01-07T03:14:09;-0.40;99.90
54264;DHT22;40178;53.042;6.406;2024-01-07T03:16:35;-0.30;99.90
54264;DHT22;40178;53.042;6.406;2024-01-07T03:19:00;-1.00;99.90
54264;DHT22;40178;53.042;6.406;2024-01-07T03:21:27;-0.30;99.90
54264;DHT22;40178;53.042;6.406;2024-01-07T03:23:53;-0.40;99.90
54264;DHT22;40178;53.042;6.406;2024-01-07T03:26:19;-0.30;99.90
54264;DHT22;40178;53.042;6.406;2024-01-07T03:28:45;-0.30;99.90
54264;DHT22;40178;53.042;6.406;2024-01-07T03:31:15;-0.30;99.90
54264;DHT22;40178;53.042;6.406;2024-01-07T03:33:42;-0.30;99.90
54264;DHT22;40178;53.042;6.406;2024-01-07T03:36:09;-0.30;99.90
54264;DHT22;40178;53.042;6.406;2024-01-07T03:38:36;-0.30;99.90
54264;DHT22;40178;53.042;6.406;2024-01-07T03:41:02;-0.30;99.90
54264;DHT22;40178;53.042;6.406;2024-01-07T03:43:28;-0.30;99.90
54264;DHT22;40178;53.042;6.406;2024-01-07T03:45:54;-0.30;99.90
54264;DHT22;40178;53.042;6.406;2024-01-07T03:48:19;-0.30;99.90
54264;DHT22;40178;53.042;6.406;2024-01-07T03:50:45;-0.30;99.90
54264;DHT22;40178;53.042;6.406;2024-01-07T03:53:11;-0.30;99.90
54264;DHT22;40178;53.042;6.406;2024-01-07T03:55:36;-0.30;99.90
54264;DHT22;40178;53.042;6.406;2024-01-07T03:58:03;-0.30;99.90
54264;DHT22;40178;53.042;6.406;2024-01-07T04:00:29;-0.40;99.90
54264;DHT22;40178;53.042;6.406;2024-01-07T04:02:54;-0.40;99.90
54264;DHT22;40178;53.042;6.406;2024-01-07T04:05:20;-0.40;99.90
54264;DHT22;40178;53.042;6.406;2024-01-07T04:07:46;-0.40;99.90
54264;DHT22;40178;53.042;6.406;2024-01-07T04:10:11;-0.40;99.90
54264;DHT22;40178;53.042;6.406;2024-01-07T04:12:38;-0.40;99.90
54264;DHT22;40178;53.042;6.406;2024-01-07T04:15:04;-0.40;99.90
54264;DHT22;40178;53.042;6.406;2024-01-07T04:17:30;-0.40;99.90
54264;DHT22;40178;53.042;6.406;2024-01-07T04:19:55;-0.40;99.90
54264;DHT22;40178;53.042;6.406;2024-01-07T04:22:21;-0.40;99.90
54264;DHT22;40178;53.042;6.406;2024-01-07T04:24:47;-0.40;99.90
54264;DHT22;40178;53.042;6.406;2024-01-07T04:27:12;-0.30;99.90
54264;DHT22;40178;53.042;6.406;2024-01-07T04:29:38;-0.40;99.90
54264;DHT22;40178;53.042;6.406;2024-01-07T04:32:04;-0.30;99.90
54264;DHT22;40178;53.042;6.406;2024-01-07T04:34:29;-0.40;99.90
54264;DHT22;40178;53.042;6.406;2024-01-07T04:36:55;-0.30;99.90
54264;DHT22;40178;53.042;6.406;2024-01-07T04:39:20;-0.30;99.90
54264;DHT22;40178;53.042;6.406;2024-01-07T04:41:46;-0.30;99.90
54264;DHT22;40178;53.042;6.406;2024-01-07T04:44:12;-0.30;99.90
54264;DHT22;40178;53.042;6.406;2024-01-07T04:46:38;-0.30;99.90
54264;DHT22;40178;53.042;6.406;2024-01-07T04:49:05;-0.30;99.90
54264;DHT22;40178;53.042;6.406;2024-01-07T04:51:34;-0.30;99.90
54264;DHT22;40178;53.042;6.406;2024-01-07T04:53:59;-0.30;99.90
54264;DHT22;40178;53.042;6.406;2024-01-07T04:56:25;-0.40;99.90
54264;DHT22;40178;53.042;6.406;2024-01-07T04:58:50;-0.40;99.90
54264;DHT22;40178;53.042;6.406;2024-01-07T05:01:16;-0.40;99.90
54264;DHT22;40178;53.042;6.406;2024-01-07T05:03:42;-0.40;99.90
54264;DHT22;40178;53.042;6.406;2024-01-07T05:06:11;-0.40;99.90
54264;DHT22;40178;53.042;6.406;2024-01-07T05:08:37;-0.40;99.90
54264;DHT22;40178;53.042;6.406;2024-01-07T05:11:03;-0.30;99.90
54264;DHT22;40178;53.042;6.406;2024-01-07T05:13:30;-0.40;99.90
54264;DHT22;40178;53.042;6.406;2024-01-07T05:15:55;-0.40;99.90
54264;DHT22;40178;53.042;6.406;2024-01-07T05:18:25;-0.30;99.90
54264;DHT22;40178;53.042;6.406;2024-01-07T05:20:51;-0.30;99.90
54264;DHT22;40178;53.042;6.406;2024-01-07T05:23:17;-0.30;99.90
54264;DHT22;40178;53.042;6.406;2024-01-07T05:25:43;-0.30;99.90
54264;DHT22;40178;53.042;6.406;2024-01-07T05:28:13;-0.30;99.90
54264;DHT22;40178;53.042;6.406;2024-01-07T05:30:39;-0.30;99.90
54264;DHT22;40178;53.042;6.406;2024-01-07T05:33:05;-0.30;99.90
54264;DHT22;40178;53.042;6.406;2024-01-07T05:35:31;-0.30;99.90
54264;DHT22;40178;53.042;6.406;2024-01-07T05:37:57;-0.30;99.90
54264;DHT22;40178;53.042;6.406;2024-01-07T05:40:22;-0.30;99.90
54264;DHT22;40178;53.042;6.406;2024-01-07T05:42:48;-0.30;99.90
54264;DHT22;40178;53.042;6.406;2024-01-07T05:45:14;-0.30;99.90
54264;DHT22;40178;53.042;6.406;2024-01-07T05:47:39;-0.30;99.90
54264;DHT22;40178;53.042;6.406;2024-01-07T05:50:07;-0.30;99.90
54264;DHT22;40178;53.042;6.406;2024-01-07T05:52:32;-0.30;99.90
54264;DHT22;40178;53.042;6.406;2024-01-07T05:54:58;-0.30;99.90
54264;DHT22;40178;53.042;6.406;2024-01-07T05:57:24;-0.30;99.90
54264;DHT22;40178;53.042;6.406;2024-01-07T05:59:50;-0.30;99.90
54264;DHT22;40178;53.042;6.406;2024-01-07T06:02:17;-0.30;99.90
54264;DHT22;40178;53.042;6.406;2024-01-07T06:04:42;-0.30;99.90
54264;DHT22;40178;53.042;6.406;2024-01-07T06:07:08;-0.20;99.90
54264;DHT22;40178;53.042;6.406;2024-01-07T06:09:34;-0.30;99.90
54264;DHT22;40178;53.042;6.406;2024-01-07T06:12:00;-0.30;99.90
54264;DHT22;40178;53.042;6.406;2024-01-07T06:14:26;-0.30;99.90
54264;DHT22;40178;53.042;6.406;2024-01-07T06:16:51;-0.30;99.90
54264;DHT22;40178;53.042;6.406;2024-01-07T06:19:17;-0.20;99.90
54264;DHT22;40178;53.042;6.406;2024-01-07T06:21:43;-0.30;99.90
54264;DHT22;40178;53.042;6.406;2024-01-07T06:24:09;-0.20;99.90
54264;DHT22;40178;53.042;6.406;2024-01-07T06:26:35;-0.30;99.90
54264;DHT22;40178;53.042;6.406;2024-01-07T06:29:01;-0.30;99.90
54264;DHT22;40178;53.042;6.406;2024-01-07T06:31:27;-0.30;99.90
54264;DHT22;40178;53.042;6.406;2024-01-07T06:33:53;-0.30;99.90
54264;DHT22;40178;53.042;6.406;2024-01-07T06:36:21;-0.30;99.90
54264;DHT22;40178;53.042;6.406;2024-01-07T06:38:47;-0.20;99.90
54264;DHT22;40178;53.042;6.406;2024-01-07T06:41:14;-0.30;99.90
54264;DHT22;40178;53.042;6.406;2024-01-07T06:43:39;-0.30;99.90
54264;DHT22;40178;53.042;6.406;2024-01-07T06:46:05;-0.30;99.90
54264;DHT22;40178;53.042;6.406;2024-01-07T06:48:31;-0.30;99.90
54264;DHT22;40178;53.042;6.406;2024-01-07T06:50:57;-0.20;99.90
54264;DHT22;40178;53.042;6.406;2024-01-07T06:53:22;-0.30;99.90
54264;DHT22;40178;53.042;6.406;2024-01-07T06:55:48;-0.20;99.90
54264;DHT22;40178;53.042;6.406;2024-01-07T06:58:14;-0.30;99.90
54264;DHT22;40178;53.042;6.406;2024-01-07T07:00:39;-0.30;99.90
54264;DHT22;40178;53.042;6.406;2024-01-07T07:03:06;-0.30;95.10
54264;DHT22;40178;53.042;6.406;2024-01-07T07:05:31;-0.30;97.60
54264;DHT22;40178;53.042;6.406;2024-01-07T07:07:57;-0.30;97.50
54264;DHT22;40178;53.042;6.406;2024-01-07T07:10:23;-0.30;98.50
54264;DHT22;40178;53.042;6.406;2024-01-07T07:12:49;-0.30;99.90
54264;DHT22;40178;53.042;6.406;2024-01-07T07:15:16;-0.30;98.40
54264;DHT22;40178;53.042;6.406;2024-01-07T07:17:42;-0.30;97.40
54264;DHT22;40178;53.042;6.406;2024-01-07T07:20:08;-0.30;96.00
54264;DHT22;40178;53.042;6.406;2024-01-07T07:22:34;-0.30;99.90
54264;DHT22;40178;53.042;6.406;2024-01-07T07:25:00;-0.30;92.20
54264;DHT22;40178;53.042;6.406;2024-01-07T07:27:25;-0.30;98.80
54264;DHT22;40178;53.042;6.406;2024-01-07T07:29:51;-0.30;92.80
54264;DHT22;40178;53.042;6.406;2024-01-07T07:32:17;-0.30;90.70
54264;DHT22;40178;53.042;6.406;2024-01-07T07:34:43;1.20;92.80
54264;DHT22;40178;53.042;6.406;2024-01-07T07:37:09;-0.30;94.40
54264;DHT22;40178;53.042;6.406;2024-01-07T07:39:35;-0.30;97.20
54264;DHT22;40178;53.042;6.406;2024-01-07T07:42:01;-0.30;99.90
54264;DHT22;40178;53.042;6.406;2024-01-07T07:44:26;-0.30;90.20
54264;DHT22;40178;53.042;6.406;2024-01-07T07:46:52;-0.30;95.40
54264;DHT22;40178;53.042;6.406;2024-01-07T07:49:18;-0.40;96.30
54264;DHT22;40178;53.042;6.406;2024-01-07T07:51:44;-0.40;95.70
54264;DHT22;40178;53.042;6.406;2024-01-07T07:54:09;-0.40;90.90
54264;DHT22;40178;53.042;6.406;2024-01-07T07:56:35;-0.40;94.40
54264;DHT22;40178;53.042;6.406;2024-01-07T07:59:02;-0.40;91.00
54264;DHT22;40178;53.042;6.406;2024-01-07T08:01:28;-0.50;90.10
54264;DHT22;40178;53.042;6.406;2024-01-07T08:03:53;-0.50;94.10
54264;DHT22;40178;53.042;6.406;2024-01-07T08:06:19;-0.60;91.10
54264;DHT22;40178;53.042;6.406;2024-01-07T08:08:45;-0.60;90.10
54264;DHT22;40178;53.042;6.406;2024-01-07T08:11:10;-0.70;92.10
54264;DHT22;40178;53.042;6.406;2024-01-07T08:13:37;-0.70;86.70
54264;DHT22;40178;53.042;6.406;2024-01-07T08:16:04;-0.70;92.80
54264;DHT22;40178;53.042;6.406;2024-01-07T08:18:31;-0.80;94.80
54264;DHT22;40178;53.042;6.406;2024-01-07T08:20:56;-0.70;95.50
54264;DHT22;40178;53.042;6.406;2024-01-07T08:23:23;-0.80;92.70
54264;DHT22;40178;53.042;6.406;2024-01-07T08:25:49;-0.80;94.40
54264;DHT22;40178;53.042;6.406;2024-01-07T08:28:16;-0.80;96.60
54264;DHT22;40178;53.042;6.406;2024-01-07T08:30:42;-0.80;95.30
54264;DHT22;40178;53.042;6.406;2024-01-07T08:33:08;-0.80;94.00
54264;DHT22;40178;53.042;6.406;2024-01-07T08:35:33;-0.80;94.60
54264;DHT22;40178;53.042;6.406;2024-01-07T08:37:59;-0.80;95.20
54264;DHT22;40178;53.042;6.406;2024-01-07T08:40:24;-0.80;94.20
54264;DHT22;40178;53.042;6.406;2024-01-07T08:42:50;-0.80;94.70
54264;DHT22;40178;53.042;6.406;2024-01-07T08:45:16;-0.80;97.70
54264;DHT22;40178;53.042;6.406;2024-01-07T08:47:41;-0.80;96.50
54264;DHT22;40178;53.042;6.406;2024-01-07T08:50:07;-0.80;98.50
54264;DHT22;40178;53.042;6.406;2024-01-07T08:52:33;-0.80;92.00
54264;DHT22;40178;53.042;6.406;2024-01-07T08:55:01;-0.70;93.00
54264;DHT22;40178;53.042;6.406;2024-01-07T08:57:27;-0.60;95.10
54264;DHT22;40178;53.042;6.406;2024-01-07T08:59:53;-0.60;96.80
54264;DHT22;40178;53.042;6.406;2024-01-07T09:02:19;-0.50;95.60
54264;DHT22;40178;53.042;6.406;2024-01-07T09:04:44;-0.40;96.50
54264;DHT22;40178;53.042;6.406;2024-01-07T09:07:10;-0.40;95.00
54264;DHT22;40178;53.042;6.406;2024-01-07T09:09:36;-0.30;79.80
54264;DHT22;40178;53.042;6.406;2024-01-07T09:12:03;-0.30;83.20
54264;DHT22;40178;53.042;6.406;2024-01-07T09:14:30;-0.30;80.80
54264;DHT22;40178;53.042;6.406;2024-01-07T09:16:55;-0.30;94.90
54264;DHT22;40178;53.042;6.406;2024-01-07T09:19:21;-0.30;90.00
54264;DHT22;40178;53.042;6.406;2024-01-07T09:21:46;-0.30;93.10
54264;DHT22;40178;53.042;6.406;2024-01-07T09:24:13;-0.30;96.20
54264;DHT22;40178;53.042;6.406;2024-01-07T09:26:39;-0.20;86.50
54264;DHT22;40178;53.042;6.406;2024-01-07T09:29:05;-0.20;72.60
54264;DHT22;40178;53.042;6.406;2024-01-07T09:31:30;-0.20;83.30
54264;DHT22;40178;53.042;6.406;2024-01-07T09:33:56;-0.10;86.90
54264;DHT22;40178;53.042;6.406;2024-01-07T09:36:21;-0.10;90.70
54264;DHT22;40178;53.042;6.406;2024-01-07T09:38:47;-0.10;80.40
54264;DHT22;40178;53.042;6.406;2024-01-07T09:41:13;-0.10;92.70
54264;DHT22;40178;53.042;6.406;2024-01-07T09:43:38;-0.10;93.50
54264;DHT22;40178;53.042;6.406;2024-01-07T09:46:04;-0.10;86.60
54264;DHT22;40178;53.042;6.406;2024-01-07T09:48:30;0.00;85.30
54264;DHT22;40178;53.042;6.406;2024-01-07T09:50:57;0.00;72.60
54264;DHT22;40178;53.042;6.406;2024-01-07T09:53:26;0.00;81.70
54264;DHT22;40178;53.042;6.406;2024-01-07T09:56:15;0.00;75.20
54264;DHT22;40178;53.042;6.406;2024-01-07T09:58:45;0.00;80.00
54264;DHT22;40178;53.042;6.406;2024-01-07T10:01:13;0.10;80.70
54264;DHT22;40178;53.042;6.406;2024-01-07T10:03:39;0.10;83.80
54264;DHT22;40178;53.042;6.406;2024-01-07T10:06:05;0.10;85.60
54264;DHT22;40178;53.042;6.406;2024-01-07T10:08:31;0.10;67.50
54264;DHT22;40178;53.042;6.406;2024-01-07T10:10:57;0.20;79.30
54264;DHT22;40178;53.042;6.406;2024-01-07T10:13:23;0.10;78.00
54264;DHT22;40178;53.042;6.406;2024-01-07T10:15:49;0.20;87.40
54264;DHT22;40178;53.042;6.406;2024-01-07T10:18:15;0.20;42.80
54264;DHT22;40178;53.042;6.406;2024-01-07T10:20:40;0.20;17.20
54264;DHT22;40178;53.042;6.406;2024-01-07T10:23:06;0.20;30.50
54264;DHT22;40178;53.042;6.406;2024-01-07T10:25:34;0.20;36.40
54264;DHT22;40178;53.042;6.406;2024-01-07T10:28:01;0.20;33.00
54264;DHT22;40178;53.042;6.406;2024-01-07T10:30:30;0.20;17.20
54264;DHT22;40178;53.042;6.406;2024-01-07T10:32:59;0.20;27.80
54264;DHT22;40178;53.042;6.406;2024-01-07T10:35:31;0.30;11.90
54264;DHT22;40178;53.042;6.406;2024-01-07T10:37:59;0.30;19.60
54264;DHT22;40178;53.042;6.406;2024-01-07T10:40:27;0.30;40.80
54264;DHT22;40178;53.042;6.406;2024-01-07T10:42:54;0.30;23.80
54264;DHT22;40178;53.042;6.406;2024-01-07T10:45:20;0.40;67.70
54264;DHT22;40178;53.042;6.406;2024-01-07T10:47:50;0.40;62.90
54264;DHT22;40178;53.042;6.406;2024-01-07T10:50:19;0.40;50.50
54264;DHT22;40178;53.042;6.406;2024-01-07T10:52:58;0.40;69.60
54264;DHT22;40178;53.042;6.406;2024-01-07T10:55:25;0.40;56.80
54264;DHT22;40178;53.042;6.406;2024-01-07T10:57:53;0.40;52.30
54264;DHT22;40178;53.042;6.406;2024-01-07T11:00:21;0.40;57.60
54264;DHT22;40178;53.042;6.406;2024-01-07T11:03:11;0.40;70.50
54264;DHT22;40178;53.042;6.406;2024-01-07T11:06:11;0.30;48.20
54264;DHT22;40178;53.042;6.406;2024-01-07T11:08:43;0.30;52.20
54264;DHT22;40178;53.042;6.406;2024-01-07T11:11:13;0.30;60.20
54264;DHT22;40178;53.042;6.406;2024-01-07T11:13:40;0.30;36.50
54264;DHT22;40178;53.042;6.406;2024-01-07T11:16:09;0.30;63.90
54264;DHT22;40178;53.042;6.406;2024-01-07T11:18:47;0.30;68.80
54264;DHT22;40178;53.042;6.406;2024-01-07T11:21:22;0.20;56.80
54264;DHT22;40178;53.042;6.406;2024-01-07T11:23:50;0.30;44.10
54264;DHT22;40178;53.042;6.406;2024-01-07T11:26:17;0.30;69.20
54264;DHT22;40178;53.042;6.406;2024-01-07T11:28:54;0.30;81.90
54264;DHT22;40178;53.042;6.406;2024-01-07T11:31:42;0.30;58.00
54264;DHT22;40178;53.042;6.406;2024-01-07T11:34:10;0.30;66.00
54264;DHT22;40178;53.042;6.406;2024-01-07T11:36:37;0.40;76.10
54264;DHT22;40178;53.042;6.406;2024-01-07T11:39:03;0.40;46.60
54264;DHT22;40178;53.042;6.406;2024-01-07T11:41:32;0.40;44.10
54264;DHT22;40178;53.042;6.406;2024-01-07T11:43:59;0.40;60.20
54264;DHT22;40178;53.042;6.406;2024-01-07T11:46:29;0.40;56.20
54264;DHT22;40178;53.042;6.406;2024-01-07T11:48:57;0.40;66.20
54264;DHT22;40178;53.042;6.406;2024-01-07T11:51:27;0.40;83.60
54264;DHT22;40178;53.042;6.406;2024-01-07T11:53:52;0.40;71.60
54264;DHT22;40178;53.042;6.406;2024-01-07T11:56:18;0.40;64.70
54264;DHT22;40178;53.042;6.406;2024-01-07T11:58:44;0.40;72.80
54264;DHT22;40178;53.042;6.406;2024-01-07T12:01:10;0.40;74.10
54264;DHT22;40178;53.042;6.406;2024-01-07T12:03:36;0.40;83.40
54264;DHT22;40178;53.042;6.406;2024-01-07T12:06:02;0.40;58.40
54264;DHT22;40178;53.042;6.406;2024-01-07T12:08:28;0.40;72.60
54264;DHT22;40178;53.042;6.406;2024-01-07T12:10:54;0.40;73.60
54264;DHT22;40178;53.042;6.406;2024-01-07T12:13:21;0.40;86.10
54264;DHT22;40178;53.042;6.406;2024-01-07T12:15:46;0.40;92.50
54264;DHT22;40178;53.042;6.406;2024-01-07T12:18:12;0.60;92.70
54264;DHT22;40178;53.042;6.406;2024-01-07T12:20:38;0.40;93.80
54264;DHT22;40178;53.042;6.406;2024-01-07T12:23:08;0.40;78.00
54264;DHT22;40178;53.042;6.406;2024-01-07T12:25:34;0.40;87.80
54264;DHT22;40178;53.042;6.406;2024-01-07T12:28:01;0.40;83.50
54264;DHT22;40178;53.042;6.406;2024-01-07T12:30:27;0.40;92.60
54264;DHT22;40178;53.042;6.406;2024-01-07T12:32:53;0.40;94.10
54264;DHT22;40178;53.042;6.406;2024-01-07T12:35:19;0.40;87.30
54264;DHT22;40178;53.042;6.406;2024-01-07T12:37:45;0.40;92.80
54264;DHT22;40178;53.042;6.406;2024-01-07T12:40:11;0.40;94.60
54264;DHT22;40178;53.042;6.406;2024-01-07T12:42:40;0.40;94.60
54264;DHT22;40178;53.042;6.406;2024-01-07T12:45:13;0.40;90.20
54264;DHT22;40178;53.042;6.406;2024-01-07T12:47:40;0.40;91.60
54264;DHT22;40178;53.042;6.406;2024-01-07T12:50:08;0.40;91.50
54264;DHT22;40178;53.042;6.406;2024-01-07T12:52:39;0.40;93.20
54264;DHT22;40178;53.042;6.406;2024-01-07T12:55:06;0.40;95.00
54264;DHT22;40178;53.042;6.406;2024-01-07T12:57:33;0.40;96.60
54264;DHT22;40178;53.042;6.406;2024-01-07T12:59:58;0.40;94.60
54264;DHT22;40178;53.042;6.406;2024-01-07T13:02:24;0.40;94.00
54264;DHT22;40178;53.042;6.406;2024-01-07T13:04:50;0.40;94.10
54264;DHT22;40178;53.042;6.406;2024-01-07T13:07:16;0.30;98.20
54264;DHT22;40178;53.042;6.406;2024-01-07T13:09:42;0.20;93.50
54264;DHT22;40178;53.042;6.406;2024-01-07T13:12:10;0.20;94.20
54264;DHT22;40178;53.042;6.406;2024-01-07T13:14:36;0.20;97.50
54264;DHT22;40178;53.042;6.406;2024-01-07T13:17:01;0.20;99.00
54264;DHT22;40178;53.042;6.406;2024-01-07T13:19:28;0.20;98.00
54264;DHT22;40178;53.042;6.406;2024-01-07T13:21:53;0.20;99.90
54264;DHT22;40178;53.042;6.406;2024-01-07T13:24:21;0.20;99.90
54264;DHT22;40178;53.042;6.406;2024-01-07T13:26:47;0.20;99.90
54264;DHT22;40178;53.042;6.406;2024-01-07T13:29:13;0.30;99.90
54264;DHT22;40178;53.042;6.406;2024-01-07T13:31:39;0.30;99.90
54264;DHT22;40178;53.042;6.406;2024-01-07T13:34:04;0.30;99.90
54264;DHT22;40178;53.042;6.406;2024-01-07T13:36:30;0.40;99.90
54264;DHT22;40178;53.042;6.406;2024-01-07T13:38:56;0.40;99.90
54264;DHT22;40178;53.042;6.406;2024-01-07T13:41:21;0.40;99.90
54264;DHT22;40178;53.042;6.406;2024-01-07T13:43:47;0.40;99.90
54264;DHT22;40178;53.042;6.406;2024-01-07T13:46:13;0.50;99.90
54264;DHT22;40178;53.042;6.406;2024-01-07T13:48:39;0.50;99.90
54264;DHT22;40178;53.042;6.406;2024-01-07T13:51:06;0.50;99.90
54264;DHT22;40178;53.042;6.406;2024-01-07T13:53:32;0.50;99.90
54264;DHT22;40178;53.042;6.406;2024-01-07T13:55:58;0.50;99.90
54264;DHT22;40178;53.042;6.406;2024-01-07T13:58:23;0.50;99.90
54264;DHT22;40178;53.042;6.406;2024-01-07T14:00:49;0.50;99.90
54264;DHT22;40178;53.042;6.406;2024-01-07T14:03:14;0.50;99.90
54264;DHT22;40178;53.042;6.406;2024-01-07T14:05:41;0.40;99.90
54264;DHT22;40178;53.042;6.406;2024-01-07T14:08:06;0.30;99.90
54264;DHT22;40178;53.042;6.406;2024-01-07T14:10:32;0.20;99.90
54264;DHT22;40178;53.042;6.406;2024-01-07T14:12:58;0.10;99.90
54264;DHT22;40178;53.042;6.406;2024-01-07T14:15:23;0.00;99.90
54264;DHT22;40178;53.042;6.406;2024-01-07T14:17:49;0.00;99.90
54264;DHT22;40178;53.042;6.406;2024-01-07T14:20:15;-0.10;99.90
54264;DHT22;40178;53.042;6.406;2024-01-07T14:22:40;-0.10;99.90
54264;DHT22;40178;53.042;6.406;2024-01-07T14:25:06;-0.10;99.90
54264;DHT22;40178;53.042;6.406;2024-01-07T14:27:32;-0.20;99.90
54264;DHT22;40178;53.042;6.406;2024-01-07T14:29:58;-0.20;99.90
54264;DHT22;40178;53.042;6.406;2024-01-07T14:32:24;-0.20;99.90
54264;DHT22;40178;53.042;6.406;2024-01-07T14:34:49;-0.20;99.90
54264;DHT22;40178;53.042;6.406;2024-01-07T14:37:16;-0.20;99.90
54264;DHT22;40178;53.042;6.406;2024-01-07T14:39:42;-0.20;99.90
54264;DHT22;40178;53.042;6.406;2024-01-07T14:42:08;-0.20;99.90
54264;DHT22;40178;53.042;6.406;2024-01-07T14:44:34;-0.20;99.90
54264;DHT22;40178;53.042;6.406;2024-01-07T14:47:00;-0.20;99.90
54264;DHT22;40178;53.042;6.406;2024-01-07T14:49:25;-0.30;99.90
54264;DHT22;40178;53.042;6.406;2024-01-07T14:51:51;-0.30;99.90
54264;DHT22;40178;53.042;6.406;2024-01-07T14:54:17;-0.30;99.90
54264;DHT22;40178;53.042;6.406;2024-01-07T14:56:42;-0.30;99.90
54264;DHT22;40178;53.042;6.406;2024-01-07T14:59:08;-0.40;99.90
54264;DHT22;40178;53.042;6.406;2024-01-07T15:01:34;-0.40;99.90
54264;DHT22;40178;53.042;6.406;2024-01-07T15:04:00;-0.40;99.90
54264;DHT22;40178;53.042;6.406;2024-01-07T15:06:26;-0.40;99.90
54264;DHT22;40178;53.042;6.406;2024-01-07T15:08:52;-0.50;99.90
54264;DHT22;40178;53.042;6.406;2024-01-07T15:11:19;-0.60;99.90
54264;DHT22;40178;53.042;6.406;2024-01-07T15:13:45;-0.60;99.90
54264;DHT22;40178;53.042;6.406;2024-01-07T15:16:11;-0.60;99.90
54264;DHT22;40178;53.042;6.406;2024-01-07T15:18:36;-0.60;99.90
54264;DHT22;40178;53.042;6.406;2024-01-07T15:21:02;-0.60;99.90
54264;DHT22;40178;53.042;6.406;2024-01-07T15:23:28;-0.70;99.90
54264;DHT22;40178;53.042;6.406;2024-01-07T15:25:54;-0.70;99.90
54264;DHT22;40178;53.042;6.406;2024-01-07T15:28:20;-0.70;99.90
54264;DHT22;40178;53.042;6.406;2024-01-07T15:30:46;-0.80;99.90